createdAt,value
2023-03-15T00:01:08.121Z,1.83
2023-03-15T00:03:37.542Z,2.47
2023-03-15T00:06:06.592Z,2.07
2023-03-15T00:08:35.051Z,1.93
2023-03-15T00:11:03.681Z,1.90
2023-03-15T00:13:32.767Z,1.87
2023-03-15T00:16:04.332Z,2.20
2023-03-15T00:18:33.344Z,1.97
2023-03-15T00:21:01.488Z,2.40
2023-03-15T00:23:29.724Z,1.80
2023-03-15T00:25:58.188Z,2.30
2023-03-15T00:28:26.764Z,1.97
2023-03-15T00:31:12.094Z,2.07
2023-03-15T00:33:41.718Z,1.90
2023-03-15T00:36:12.151Z,1.80
2023-03-15T00:38:44.177Z,1.97
2023-03-15T00:41:14.637Z,1.83
2023-03-15T00:43:43.317Z,1.80
2023-03-15T00:46:14.126Z,1.67
2023-03-15T00:48:42.212Z,1.57
2023-03-15T00:51:12.810Z,1.63
2023-03-15T00:53:43.645Z,2.00
2023-03-15T00:56:13.546Z,1.90
2023-03-15T00:58:41.833Z,1.87
2023-03-15T01:01:11.961Z,1.77
2023-03-15T01:03:42.557Z,1.90
2023-03-15T01:06:17.046Z,2.00
2023-03-15T01:08:45.852Z,1.63
2023-03-15T01:11:16.673Z,1.97
2023-03-15T01:13:45.164Z,2.00
2023-03-15T01:16:15.270Z,1.90
2023-03-15T01:18:45.787Z,1.77
2023-03-15T01:21:16.268Z,1.80
2023-03-15T01:23:44.660Z,1.73
2023-03-15T01:26:14.953Z,1.70
2023-03-15T01:28:43.566Z,1.67
2023-03-15T01:31:18.451Z,1.77
2023-03-15T01:33:48.191Z,2.20
2023-03-15T01:36:16.443Z,2.00
2023-03-15T01:38:45.264Z,1.97
2023-03-15T01:41:14.510Z,2.43
2023-03-15T01:43:47.167Z,1.93
2023-03-15T01:46:24.199Z,1.97
2023-03-15T01:48:58.391Z,2.07
2023-03-15T01:51:32.788Z,1.60
2023-03-15T01:54:05.468Z,2.37
2023-03-15T01:56:36.121Z,1.70
2023-03-15T01:59:07.253Z,1.73
2023-03-15T02:01:38.198Z,1.90
2023-03-15T02:04:11.604Z,1.90
2023-03-15T02:06:40.265Z,1.70
2023-03-15T02:09:15.169Z,1.90
2023-03-15T02:11:44.482Z,1.80
2023-03-15T02:14:14.450Z,1.80
2023-03-15T02:16:42.586Z,1.97
2023-03-15T02:19:28.056Z,1.50
2023-03-15T02:22:08.411Z,1.77
2023-03-15T02:24:46.840Z,1.70
2023-03-15T02:27:16.102Z,1.80
2023-03-15T02:29:45.717Z,1.60
2023-03-15T02:32:14.103Z,1.67
2023-03-15T02:34:42.192Z,1.60
2023-03-15T02:37:10.881Z,1.50
2023-03-15T02:39:39.153Z,1.90
2023-03-15T02:42:07.936Z,2.00
2023-03-15T02:44:38.922Z,1.63
2023-03-15T02:47:19.836Z,1.83
2023-03-15T02:49:51.960Z,1.70
2023-03-15T02:52:19.985Z,1.93
2023-03-15T02:54:48.595Z,1.80
2023-03-15T02:57:19.057Z,1.70
2023-03-15T02:59:47.466Z,1.87
2023-03-15T03:02:17.295Z,1.83
2023-03-15T03:04:45.888Z,1.50
2023-03-15T03:07:14.412Z,1.57
2023-03-15T03:09:42.863Z,1.70
2023-03-15T03:12:11.301Z,1.47
2023-03-15T03:14:39.504Z,1.50
2023-03-15T03:17:08.173Z,1.80
2023-03-15T03:19:37.694Z,1.60
2023-03-15T03:22:05.913Z,1.90
2023-03-15T03:24:34.667Z,1.70
2023-03-15T03:27:02.886Z,1.30
2023-03-15T03:29:30.898Z,1.57
2023-03-15T03:32:00.614Z,1.60
2023-03-15T03:34:29.068Z,1.60
2023-03-15T03:36:58.814Z,1.90
2023-03-15T03:39:27.647Z,1.70
2023-03-15T03:41:55.854Z,1.70
2023-03-15T03:44:23.987Z,1.87
2023-03-15T03:46:52.357Z,1.87
2023-03-15T03:49:20.457Z,1.90
2023-03-15T03:51:48.485Z,1.90
2023-03-15T03:54:21.063Z,1.90
2023-03-15T03:56:49.366Z,1.73
2023-03-15T03:59:17.645Z,1.37
2023-03-15T04:01:45.968Z,1.60
2023-03-15T04:04:14.467Z,1.60
2023-03-15T04:06:45.877Z,1.70
2023-03-15T04:09:14.827Z,2.03
2023-03-15T04:11:44.942Z,1.73
2023-03-15T04:14:14.405Z,1.60
2023-03-15T04:16:43.074Z,1.60
2023-03-15T04:19:13.075Z,1.60
2023-03-15T04:21:47.397Z,2.23
2023-03-15T04:24:15.879Z,1.60
2023-03-15T04:26:45.472Z,1.80
2023-03-15T04:29:15.455Z,1.90
2023-03-15T04:31:43.933Z,1.93
2023-03-15T04:34:12.066Z,2.23
2023-03-15T04:36:40.336Z,1.90
2023-03-15T04:39:08.429Z,1.70
2023-03-15T04:41:36.845Z,1.63
2023-03-15T04:44:07.350Z,2.07
2023-03-15T04:46:35.706Z,2.07
2023-03-15T04:49:05.232Z,1.70
2023-03-15T04:51:34.560Z,1.83
2023-03-15T04:54:03.197Z,2.03
2023-03-15T04:56:31.956Z,2.03
2023-03-15T04:59:00.460Z,3.17
2023-03-15T05:01:32.595Z,1.97
2023-03-15T05:04:00.949Z,2.40
2023-03-15T05:06:29.542Z,2.07
2023-03-15T05:08:58.073Z,2.00
2023-03-15T05:11:26.704Z,2.03
2023-03-15T05:13:55.473Z,2.07
2023-03-15T05:16:23.557Z,3.00
2023-03-15T05:18:54.157Z,2.10
2023-03-15T05:21:22.268Z,1.63
2023-03-15T05:23:50.401Z,1.97
2023-03-15T05:26:18.544Z,2.17
2023-03-15T05:28:47.192Z,2.10
2023-03-15T05:31:15.376Z,2.23
2023-03-15T05:33:47.012Z,1.93
2023-03-15T05:36:17.676Z,2.10
2023-03-15T05:38:45.838Z,1.93
2023-03-15T05:41:18.422Z,2.23
2023-03-15T05:43:46.969Z,2.17
2023-03-15T05:46:15.364Z,1.90
2023-03-15T05:48:45.096Z,2.20
2023-03-15T05:51:13.381Z,2.13
2023-03-15T05:53:44.655Z,2.40
2023-03-15T05:56:14.211Z,2.30
2023-03-15T05:58:42.286Z,2.10
2023-03-15T06:01:10.402Z,4.93
2023-03-15T06:03:38.650Z,3.00
2023-03-15T06:06:07.155Z,2.00
2023-03-15T06:08:37.093Z,2.07
2023-03-15T06:11:06.727Z,2.03
2023-03-15T06:13:34.832Z,2.70
2023-03-15T06:16:03.157Z,2.07
2023-03-15T06:18:31.503Z,2.20
2023-03-15T06:20:59.579Z,2.00
2023-03-15T06:23:28.187Z,2.30
2023-03-15T06:25:56.759Z,1.90
2023-03-15T06:28:26.482Z,2.03
2023-03-15T06:30:54.694Z,2.13
2023-03-15T06:33:24.537Z,2.20
2023-03-15T06:35:52.923Z,3.07
2023-03-15T06:38:21.533Z,2.13
2023-03-15T06:40:49.876Z,2.20
2023-03-15T06:43:19.721Z,2.33
2023-03-15T06:45:49.688Z,2.03
2023-03-15T06:48:18.687Z,2.37
2023-03-15T06:50:47.890Z,2.63
2023-03-15T06:53:16.721Z,2.37
2023-03-15T06:55:45.477Z,2.00
2023-03-15T06:58:14.628Z,2.03
2023-03-15T07:00:44.385Z,2.50
2023-03-15T07:03:14.270Z,2.50
2023-03-15T07:05:43.450Z,2.00
2023-03-15T07:08:11.889Z,1.87
2023-03-15T07:10:40.275Z,2.67
2023-03-15T07:13:09.349Z,1.90
2023-03-15T07:15:41.464Z,2.63
2023-03-15T07:18:09.811Z,2.53
2023-03-15T07:20:39.329Z,2.40
2023-03-15T07:23:07.635Z,2.13
2023-03-15T07:25:48.341Z,2.00
2023-03-15T07:28:20.632Z,2.10
2023-03-15T07:30:54.877Z,2.20
2023-03-15T07:33:24.441Z,2.20
2023-03-15T07:35:55.249Z,2.50
2023-03-15T07:38:27.151Z,2.20
2023-03-15T07:40:56.101Z,2.57
2023-03-15T07:43:24.864Z,1.93
2023-03-15T07:45:53.285Z,2.07
2023-03-15T07:48:21.470Z,2.00
2023-03-15T07:50:49.931Z,2.97
2023-03-15T07:53:19.762Z,2.43
2023-03-15T07:55:49.113Z,2.20
2023-03-15T07:58:20.202Z,2.13
2023-03-15T08:00:49.238Z,2.47
2023-03-15T08:03:17.631Z,2.00
2023-03-15T08:05:45.798Z,2.30
2023-03-15T08:08:14.417Z,2.70
2023-03-15T08:10:45.021Z,1.80
2023-03-15T08:13:13.177Z,1.73
2023-03-15T08:15:41.810Z,2.00
2023-03-15T08:18:09.867Z,1.50
2023-03-15T08:20:38.083Z,1.70
2023-03-15T08:23:06.602Z,1.87
2023-03-15T08:25:34.779Z,2.20
2023-03-15T08:28:04.579Z,2.17
2023-03-15T08:30:34.868Z,1.97
2023-03-15T08:33:03.755Z,1.33
2023-03-15T08:35:33.172Z,1.77
2023-03-15T08:38:02.942Z,2.10
2023-03-15T08:40:31.804Z,1.40
2023-03-15T08:43:01.142Z,1.90
2023-03-15T08:45:33.029Z,1.33
2023-03-15T08:48:02.951Z,1.60
2023-03-15T08:50:31.817Z,1.80
2023-03-15T08:53:00.492Z,1.97
2023-03-15T08:55:28.729Z,1.70
2023-03-15T08:57:57.459Z,1.70
2023-03-15T09:00:25.812Z,1.60
2023-03-15T09:02:55.697Z,1.40
2023-03-15T09:05:26.705Z,1.47
2023-03-15T09:07:54.835Z,1.20
2023-03-15T09:10:23.690Z,1.50
2023-03-15T09:12:54.319Z,1.60
2023-03-15T09:15:22.629Z,1.40
2023-03-15T09:17:52.458Z,1.50
2023-03-15T09:20:28.305Z,1.47
2023-03-15T09:22:59.478Z,1.70
2023-03-15T09:25:28.154Z,1.40
2023-03-15T09:27:56.929Z,1.60
2023-03-15T09:30:25.555Z,1.53
2023-03-15T09:32:53.841Z,1.80
2023-03-15T09:35:23.735Z,2.00
2023-03-15T09:37:52.422Z,1.50
2023-03-15T09:40:23.304Z,1.27
2023-03-15T09:43:04.656Z,2.03
2023-03-15T09:45:44.859Z,1.40
2023-03-15T09:48:17.681Z,1.87
2023-03-15T09:50:51.931Z,1.73
2023-03-15T09:53:26.514Z,1.40
2023-03-15T09:55:55.380Z,1.20
2023-03-15T09:58:30.916Z,1.73
2023-03-15T10:01:06.827Z,1.23
2023-03-15T10:03:40.218Z,1.40
2023-03-15T10:06:17.704Z,3.57
2023-03-15T10:08:47.853Z,1.90
2023-03-15T10:11:22.839Z,2.60
2023-03-15T10:14:03.298Z,1.40
2023-03-15T10:16:42.536Z,1.67
2023-03-15T10:19:24.216Z,1.67
2023-03-15T10:22:02.801Z,1.60
2023-03-15T10:24:39.045Z,1.70
2023-03-15T10:27:17.113Z,1.83
2023-03-15T10:29:46.464Z,1.30
2023-03-15T10:32:19.123Z,1.80
2023-03-15T10:34:51.003Z,1.40
2023-03-15T10:37:23.733Z,1.27
2023-03-15T10:39:57.433Z,2.40
2023-03-15T10:42:28.112Z,1.80
2023-03-15T10:44:57.224Z,1.77
2023-03-15T10:47:27.060Z,1.57
2023-03-15T10:49:59.872Z,1.47
2023-03-15T10:52:35.835Z,1.60
2023-03-15T10:55:08.800Z,1.60
2023-03-15T10:57:40.432Z,2.10
2023-03-15T11:00:24.107Z,2.27
2023-03-15T11:03:01.893Z,2.27
2023-03-15T11:05:33.232Z,1.60
2023-03-15T11:08:03.014Z,1.30
2023-03-15T11:10:36.261Z,1.40
2023-03-15T11:13:13.180Z,1.40
2023-03-15T11:15:49.713Z,1.50
2023-03-15T11:18:26.883Z,1.40
2023-03-15T11:20:58.265Z,1.33
2023-03-15T11:23:31.307Z,1.43
2023-03-15T11:25:59.668Z,1.20
2023-03-15T11:28:31.083Z,1.50
2023-03-15T11:31:01.178Z,1.80
2023-03-15T11:33:38.956Z,1.50
2023-03-15T11:36:17.686Z,1.70
2023-03-15T11:38:48.079Z,1.63
2023-03-15T11:41:27.101Z,1.27
2023-03-15T11:44:05.145Z,1.73
2023-03-15T11:46:38.456Z,2.80
2023-03-15T11:49:16.438Z,2.63
2023-03-15T11:51:45.570Z,1.47
2023-03-15T11:54:20.092Z,1.90
2023-03-15T11:56:51.683Z,1.93
2023-03-15T11:59:21.901Z,1.60
2023-03-15T12:01:52.316Z,1.90
2023-03-15T12:04:45.229Z,1.30
2023-03-15T12:07:31.638Z,1.83
2023-03-15T12:10:20.990Z,1.57
2023-03-15T12:12:57.983Z,1.70
2023-03-15T12:15:50.425Z,1.50
2023-03-15T12:18:22.638Z,1.57
2023-03-15T12:21:06.744Z,2.33
2023-03-15T12:23:41.464Z,1.73
2023-03-15T12:26:23.374Z,2.50
2023-03-15T12:28:54.184Z,2.20
2023-03-15T12:31:22.764Z,1.53
2023-03-15T12:33:53.720Z,1.90
2023-03-15T12:36:33.368Z,2.23
2023-03-15T12:39:04.691Z,1.87
2023-03-15T12:41:40.154Z,2.17
2023-03-15T12:44:40.054Z,1.93
2023-03-15T12:47:13.182Z,1.80
2023-03-15T12:49:43.967Z,2.07
2023-03-15T12:52:39.540Z,1.90
2023-03-15T12:55:15.615Z,1.80
2023-03-15T12:57:50.988Z,2.10
2023-03-15T13:00:22.404Z,1.67
2023-03-15T13:02:54.798Z,1.73
2023-03-15T13:05:27.355Z,2.10
2023-03-15T13:08:06.026Z,2.20
2023-03-15T13:11:02.820Z,1.90
2023-03-15T13:13:45.103Z,1.90
2023-03-15T13:16:28.060Z,2.20
2023-03-15T13:19:05.533Z,2.20
2023-03-15T13:21:37.346Z,2.20
2023-03-15T13:24:14.108Z,2.37
2023-03-15T13:26:56.624Z,2.20
2023-03-15T13:29:30.646Z,2.40
2023-03-15T13:32:04.013Z,2.03
2023-03-15T13:34:34.487Z,2.40
2023-03-15T13:37:03.411Z,1.63
2023-03-15T13:39:32.951Z,1.87
2023-03-15T13:42:03.201Z,1.80
2023-03-15T13:44:34.614Z,2.30
2023-03-15T13:47:02.757Z,2.30
2023-03-15T13:49:36.259Z,2.13
2023-03-15T13:52:12.325Z,2.00
2023-03-15T13:54:42.370Z,2.60
2023-03-15T13:57:15.564Z,2.10
2023-03-15T13:59:48.815Z,2.53
2023-03-15T14:02:21.303Z,2.23
2023-03-15T14:04:53.886Z,3.10
2023-03-15T14:07:30.833Z,2.27
2023-03-15T14:10:10.802Z,2.70
2023-03-15T14:12:39.119Z,2.67
2023-03-15T14:15:16.795Z,2.27
2023-03-15T14:17:57.631Z,2.20
2023-03-15T14:20:30.003Z,2.80
2023-03-15T14:23:03.299Z,2.20
2023-03-15T14:25:37.099Z,2.47
2023-03-15T14:28:07.510Z,2.50
2023-03-15T14:30:38.903Z,2.27
2023-03-15T14:33:09.011Z,2.57
2023-03-15T14:35:47.017Z,2.90
2023-03-15T14:38:22.692Z,2.47
2023-03-15T14:40:52.025Z,2.73
2023-03-15T14:43:20.775Z,2.70
2023-03-15T14:45:50.992Z,3.00
2023-03-15T14:48:26.023Z,2.53
2023-03-15T14:50:54.845Z,2.90
2023-03-15T14:53:26.473Z,3.17
2023-03-15T14:55:54.616Z,3.07
2023-03-15T14:58:23.790Z,2.77
2023-03-15T15:00:58.210Z,3.77
2023-03-15T15:03:32.765Z,3.73
2023-03-15T15:06:03.055Z,3.13
2023-03-15T15:08:33.707Z,3.13
2023-03-15T15:11:02.948Z,2.87
2023-03-15T15:13:32.064Z,3.00
2023-03-15T15:16:03.701Z,3.10
2023-03-15T15:18:33.845Z,3.50
2023-03-15T15:21:03.981Z,3.07
2023-03-15T15:23:34.981Z,2.40
2023-03-15T15:26:14.657Z,2.20
2023-03-15T15:28:44.459Z,2.47
2023-03-15T15:31:17.076Z,2.20
2023-03-15T15:33:45.689Z,1.97
2023-03-15T15:36:17.478Z,2.10
2023-03-15T15:38:46.635Z,2.20
2023-03-15T15:41:17.168Z,2.30
2023-03-15T15:43:45.285Z,2.40
2023-03-15T15:46:15.365Z,2.07
2023-03-15T15:48:43.655Z,2.40
2023-03-15T15:51:30.320Z,2.53
2023-03-15T15:54:00.744Z,2.67
2023-03-15T15:56:35.060Z,2.70
2023-03-15T15:59:05.877Z,2.20
2023-03-15T16:01:41.018Z,2.60
2023-03-15T16:04:14.875Z,2.90
2023-03-15T16:06:44.183Z,3.67
2023-03-15T16:09:14.782Z,2.73
2023-03-15T16:11:44.823Z,3.17
2023-03-15T16:14:14.304Z,2.83
2023-03-15T16:16:44.889Z,2.90
2023-03-15T16:19:13.120Z,2.67
2023-03-15T16:21:45.558Z,3.10
2023-03-15T16:24:21.134Z,2.67
2023-03-15T16:26:51.060Z,2.80
2023-03-15T16:29:21.304Z,2.90
2023-03-15T16:31:52.667Z,3.37
2023-03-15T16:34:23.829Z,5.60
2023-03-15T16:36:55.099Z,3.50
2023-03-15T16:39:24.296Z,3.50
2023-03-15T16:41:52.954Z,3.30
2023-03-15T16:44:22.769Z,3.27
2023-03-15T16:46:52.382Z,2.97
2023-03-15T16:49:21.239Z,3.20
2023-03-15T16:51:52.193Z,2.90
2023-03-15T16:54:38.324Z,3.00
2023-03-15T16:57:15.500Z,2.80
2023-03-15T16:59:43.880Z,2.80
2023-03-15T17:02:24.013Z,3.57
2023-03-15T17:04:52.920Z,2.87
2023-03-15T17:07:26.615Z,3.30
2023-03-15T17:09:55.399Z,3.30
2023-03-15T17:12:26.932Z,2.93
2023-03-15T17:14:58.017Z,3.30
2023-03-15T17:17:30.670Z,3.20
2023-03-15T17:20:00.483Z,3.30
2023-03-15T17:22:29.532Z,3.30
2023-03-15T17:24:57.885Z,5.10
2023-03-15T17:27:33.023Z,3.20
2023-03-15T17:30:01.528Z,3.03
2023-03-15T17:32:31.268Z,3.03
2023-03-15T17:34:59.649Z,3.27
2023-03-15T17:37:33.883Z,3.47
2023-03-15T17:40:10.334Z,3.03
2023-03-15T17:42:38.786Z,3.50
2023-03-15T17:45:16.302Z,6.60
2023-03-15T17:47:46.879Z,4.60
2023-03-15T17:50:15.225Z,3.23
2023-03-15T17:52:44.724Z,3.70
2023-03-15T17:55:20.665Z,3.50
2023-03-15T17:57:55.021Z,3.37
2023-03-15T18:00:24.969Z,3.23
2023-03-15T18:02:56.535Z,4.77
2023-03-15T18:05:27.272Z,3.83
2023-03-15T18:08:00.168Z,3.70
2023-03-15T18:10:34.865Z,3.87
2023-03-15T18:13:03.995Z,4.50
2023-03-15T18:15:33.968Z,4.17
2023-03-15T18:18:06.219Z,4.10
2023-03-15T18:20:34.781Z,3.60
2023-03-15T18:23:06.496Z,3.53
2023-03-15T18:25:36.073Z,4.10
2023-03-15T18:28:04.442Z,3.20
2023-03-15T18:30:33.934Z,3.07
2023-03-15T18:33:04.321Z,2.63
2023-03-15T18:35:34.583Z,4.63
2023-03-15T18:38:04.166Z,3.30
2023-03-15T18:40:33.856Z,3.23
2023-03-15T18:43:04.399Z,4.53
2023-03-15T18:45:34.364Z,3.20
2023-03-15T18:48:04.599Z,3.20
2023-03-15T18:50:34.712Z,3.17
2023-03-15T18:53:05.050Z,3.90
2023-03-15T18:55:34.581Z,3.00
2023-03-15T18:58:02.871Z,3.07
2023-03-15T19:00:36.220Z,3.70
2023-03-15T19:03:07.538Z,4.47
2023-03-15T19:05:38.336Z,4.30
2023-03-15T19:08:06.896Z,3.40
2023-03-15T19:10:35.557Z,4.17
2023-03-15T19:13:04.858Z,2.80
2023-03-15T19:15:35.392Z,3.47
2023-03-15T19:18:06.077Z,3.27
2023-03-15T19:20:37.051Z,3.63
2023-03-15T19:23:05.343Z,3.27
2023-03-15T19:25:33.490Z,3.33
2023-03-15T19:28:01.695Z,3.87
2023-03-15T19:30:33.044Z,3.40
2023-03-15T19:33:01.657Z,6.40
2023-03-15T19:35:32.585Z,5.43
2023-03-15T19:38:01.751Z,3.70
2023-03-15T19:40:29.981Z,7.50
2023-03-15T19:43:00.904Z,7.80
2023-03-15T19:45:29.255Z,6.17
2023-03-15T19:47:57.718Z,5.83
2023-03-15T19:50:31.050Z,5.90
2023-03-15T19:53:01.795Z,5.83
2023-03-15T19:55:31.686Z,5.87
2023-03-15T19:57:59.941Z,4.90
2023-03-15T20:00:28.778Z,3.80
2023-03-15T20:02:58.693Z,5.20
2023-03-15T20:05:27.393Z,4.57
2023-03-15T20:07:55.658Z,4.50
2023-03-15T20:10:25.622Z,4.17
2023-03-15T20:12:59.418Z,5.17
2023-03-15T20:15:29.398Z,4.30
2023-03-15T20:17:58.196Z,5.30
2023-03-15T20:20:27.383Z,6.73
2023-03-15T20:22:55.542Z,6.10
2023-03-15T20:25:25.558Z,6.73
2023-03-15T20:27:53.852Z,6.60
2023-03-15T20:30:23.213Z,5.27
2023-03-15T20:32:51.852Z,5.80
2023-03-15T20:35:23.259Z,5.20
2023-03-15T20:37:53.585Z,5.33
2023-03-15T20:40:22.672Z,5.33
2023-03-15T20:42:52.773Z,5.93
2023-03-15T20:45:21.173Z,4.70
2023-03-15T20:47:49.314Z,6.37
2023-03-15T20:50:18.031Z,4.87
2023-03-15T20:52:46.112Z,5.47
2023-03-15T20:55:15.292Z,4.93
2023-03-15T20:57:44.714Z,5.10
2023-03-15T21:00:18.391Z,4.40
2023-03-15T21:02:47.913Z,6.20
2023-03-15T21:05:16.990Z,6.87
2023-03-15T21:07:45.232Z,7.50
2023-03-15T21:10:14.950Z,7.50
2023-03-15T21:12:44.072Z,6.67
2023-03-15T21:15:21.946Z,7.60
2023-03-15T21:17:50.369Z,6.67
2023-03-15T21:20:20.726Z,6.40
2023-03-15T21:22:49.021Z,6.30
2023-03-15T21:25:23.230Z,6.37
2023-03-15T21:27:55.922Z,6.50
2023-03-15T21:30:28.681Z,6.77
2023-03-15T21:33:03.006Z,4.83
2023-03-15T21:35:31.254Z,5.33
2023-03-15T21:38:01.875Z,5.37
2023-03-15T21:40:30.149Z,5.33
2023-03-15T21:42:58.612Z,6.27
2023-03-15T21:45:31.009Z,6.10
2023-03-15T21:47:59.603Z,5.83
2023-03-15T21:50:29.578Z,5.17
2023-03-15T21:52:58.083Z,5.50
2023-03-15T21:55:27.016Z,5.00
2023-03-15T21:57:58.240Z,4.80
2023-03-15T22:00:28.928Z,4.90
2023-03-15T22:02:57.239Z,4.03
2023-03-15T22:05:25.938Z,4.60
2023-03-15T22:07:54.412Z,4.23
2023-03-15T22:10:25.078Z,4.37
2023-03-15T22:12:54.491Z,4.60
2023-03-15T22:15:30.056Z,4.07
2023-03-15T22:17:58.511Z,4.00
2023-03-15T22:20:29.277Z,3.80
2023-03-15T22:22:58.184Z,3.50
2023-03-15T22:25:28.431Z,4.13
2023-03-15T22:27:56.960Z,3.83
2023-03-15T22:30:25.809Z,3.53
2023-03-15T22:32:56.458Z,3.37
2023-03-15T22:35:27.428Z,3.20
2023-03-15T22:37:57.941Z,2.83
2023-03-15T22:40:29.470Z,3.20
2023-03-15T22:43:00.066Z,3.70
2023-03-15T22:45:31.002Z,2.90
2023-03-15T22:48:03.213Z,2.80
2023-03-15T22:50:31.805Z,3.77
2023-03-15T22:53:00.551Z,5.27
2023-03-15T22:55:28.892Z,4.37
2023-03-15T22:57:57.072Z,3.97
2023-03-15T23:00:27.595Z,3.30
2023-03-15T23:02:59.123Z,3.10
2023-03-15T23:05:28.701Z,3.83
2023-03-15T23:07:56.943Z,3.23
2023-03-15T23:10:25.726Z,3.40
2023-03-15T23:12:54.442Z,3.50
2023-03-15T23:15:23.182Z,3.57
2023-03-15T23:17:54.054Z,3.50
2023-03-15T23:20:25.617Z,3.53
2023-03-15T23:22:55.509Z,3.57
2023-03-15T23:25:25.447Z,3.13
2023-03-15T23:27:53.654Z,3.10
2023-03-15T23:30:22.982Z,3.30
2023-03-15T23:32:58.973Z,3.83
2023-03-15T23:35:28.008Z,3.30
2023-03-15T23:37:58.130Z,3.50
2023-03-15T23:40:30.395Z,3.57
2023-03-15T23:43:01.790Z,3.63
2023-03-15T23:45:30.777Z,4.60
2023-03-15T23:48:05.459Z,3.50
2023-03-15T23:50:34.004Z,3.77
2023-03-15T23:53:04.060Z,3.70
2023-03-15T23:55:33.397Z,3.80
2023-03-15T23:58:12.680Z,3.63
